Noginsk, Russia
Current Conditions -  °F | °C
As of 11:00 AM on Thursday 29 Jan 2015 (Local Time) from UUDD Reporting Station
Light Snow Light Snow  
Wind Chill: 14°   Ceiling: 2400
Heat Index: 27°   Visibility: 6mi
Dew Point: 23°   Wind: 16mph
Humidity: 86%   Direction: 180°S
Pressure: 29.74"   Gusts: NA
Location:  55.85°N, 38.44°E
Report Text: UUDD 290800Z 18007MPS 9000 -SN BKN024 OVC100 M03/M05 Q1007 WSRWY14L 64520195 14520195 NOSIG
Loading
Personal Weather Stations






























Interactive Weather Map New forecast layout! Learn more

10-Day Weather Forecast

Advertisements
Track Severe Weather on mobile